Time;durP1;ratioP1;P1;durP2;ratioP2;P2;SDS_P1;SDS_P2;PMS_P1;PMS_P2;Temp;Humidity;BMP_temperature;BMP_pressure;BME280_temperature;BME280_humidity;BME280_pressure;Samples;Min_cycle;Max_cycle;Signal;HPM_P1;HPM_P2
2022/11/25 00:02:00;;;;;;;17.38;10.70;;;231.20;2252.80;;;;;;5010897;28;20025;-60
2022/11/25 00:04:27;;;;;;;27.60;17.55;;;231.10;2252.80;;;;;;5010732;28;20105;-64
2022/11/25 00:06:53;;;;;;;21.88;13.18;;;231.10;2252.80;;;;;;5010493;28;20068;-60
2022/11/25 00:09:19;;;;;;;13.15;5.88;;;231.20;2252.80;;;;;;5010704;28;20061;-59
2022/11/25 00:11:44;;;;;;;8.55;5.78;;;231.20;2252.80;;;;;;5010548;28;20025;-60
2022/11/25 00:14:13;;;;;;;10.88;5.57;;;231.20;2252.80;;;;;;5010688;28;20236;-60
2022/11/25 00:16:39;;;;;;;10.13;6.05;;;231.20;2252.80;;;;;;5010658;28;20054;-60
2022/11/25 00:19:05;;;;;;;10.85;6.28;;;231.20;2252.80;;;;;;5010422;28;20038;-60
2022/11/25 00:21:33;;;;;;;16.80;11.73;;;231.20;2252.80;;;;;;5010639;28;20121;-61
2022/11/25 00:24:02;;;;;;;13.20;8.30;;;231.20;2252.80;;;;;;5010552;28;20018;-59
2022/11/25 00:26:31;;;;;;;13.02;7.55;;;231.20;2252.80;;;;;;5010609;28;20428;-64
2022/11/25 00:28:58;;;;;;;10.45;6.10;;;231.20;2252.80;;;;;;5010184;28;20041;-62
2022/11/25 00:31:27;;;;;;;10.75;6.90;;;231.20;2252.80;;;;;;5010406;28;20384;-60
2022/11/25 00:33:53;;;;;;;11.07;6.40;;;231.20;2252.80;;;;;;5010439;28;20026;-59
2022/11/25 00:36:27;;;;;;;16.10;9.65;;;231.30;2252.80;;;;;;5010503;28;20379;-58
2022/11/25 00:39:14;;;;;;;82.88;47.58;;;231.30;2252.80;;;;;;5010432;28;20022;-60
2022/11/25 00:44:34;;;;;;;14.93;7.82;;;231.30;2252.80;;;;;;5010437;28;20507;-61
2022/11/25 00:47:06;;;;;;;10.25;6.80;;;231.30;2252.80;;;;;;5010145;28;20058;-61
2022/11/25 00:49:32;;;;;;;12.02;6.22;;;231.20;2252.80;;;;;;5010518;28;20029;-60
2022/11/25 00:51:58;;;;;;;10.93;7.15;;;231.30;2252.80;;;;;;5009896;28;20029;-63
2022/11/25 00:54:24;;;;;;;12.30;5.80;;;231.30;2252.80;;;;;;5010056;28;20045;-61
2022/11/25 00:56:50;;;;;;;8.93;5.18;;;231.30;2252.80;;;;;;5011687;28;20049;-61
2022/11/25 00:59:16;;;;;;;12.52;7.60;;;231.30;2252.80;;;;;;5014247;28;20072;-62
2022/11/25 01:01:41;;;;;;;9.70;5.93;;;231.30;2252.80;;;;;;4993622;28;20117;-60
2022/11/25 01:04:08;;;;;;;9.95;7.13;;;231.30;2252.80;;;;;;5010869;28;20026;-60
2022/11/25 01:06:35;;;;;;;8.55;6.57;;;231.30;2252.80;;;;;;5014102;28;20384;-60
2022/11/25 01:09:01;;;;;;;12.40;7.38;;;231.30;2252.80;;;;;;5014065;28;20025;-60
2022/11/25 01:11:26;;;;;;;17.65;8.30;;;231.30;2252.80;;;;;;5013689;28;20464;-60
2022/11/25 01:13:55;;;;;;;19.98;14.18;;;231.30;2252.80;;;;;;5013872;28;20044;-61
2022/11/25 01:16:21;;;;;;;22.67;14.75;;;231.20;2252.80;;;;;;5013754;28;20518;-60
2022/11/25 01:18:49;;;;;;;10.45;6.97;;;231.20;2252.80;;;;;;5013573;28;20053;-62
2022/11/25 01:21:27;;;;;;;10.60;6.90;;;231.20;2252.80;;;;;;5013864;28;20439;-60
2022/11/25 01:23:53;;;;;;;8.25;6.28;;;231.10;2252.80;;;;;;5013455;28;20706;-61
2022/11/25 01:26:22;;;;;;;13.82;8.77;;;231.10;2252.80;;;;;;5013625;28;20049;-60
2022/11/25 01:28:51;;;;;;;10.65;6.32;;;231.00;2252.80;;;;;;5013594;28;20076;-61
2022/11/25 01:31:20;;;;;;;12.43;6.53;;;231.00;2252.80;;;;;;5013453;28;20022;-61
2022/11/25 01:33:51;;;;;;;8.20;4.95;;;231.00;2252.80;;;;;;5013573;28;20084;-60
2022/11/25 01:36:17;;;;;;;13.18;6.90;;;230.90;2252.80;;;;;;5013704;28;20384;-61
2022/11/25 01:38:44;;;;;;;17.27;10.20;;;230.90;2252.80;;;;;;5013495;28;20034;-61
2022/11/25 01:41:12;;;;;;;11.60;7.70;;;230.90;2252.80;;;;;;5013385;28;20130;-60
2022/11/25 01:43:39;;;;;;;10.80;6.00;;;230.90;2252.80;;;;;;5013233;28;20053;-61
2022/11/25 01:46:10;;;;;;;9.35;6.40;;;230.90;2252.80;;;;;;5012962;28;20096;-59
2022/11/25 01:48:46;;;;;;;13.32;7.57;;;230.80;2252.80;;;;;;5005795;28;20477;-60
2022/11/25 01:51:22;;;;;;;10.52;6.05;;;230.90;2252.80;;;;;;5013310;28;20037;-60
2022/11/25 01:53:49;;;;;;;12.30;6.50;;;230.90;2252.80;;;;;;5013040;28;20030;-59
2022/11/25 01:56:16;;;;;;;11.18;6.13;;;230.80;2252.80;;;;;;5012959;28;20061;-60
2022/11/25 01:58:43;;;;;;;9.73;6.55;;;231.00;2252.80;;;;;;5012991;28;20029;-60
2022/11/25 02:01:09;;;;;;;11.98;7.93;;;230.80;2252.80;;;;;;5013109;28;20029;-60
2022/11/25 02:03:43;;;;;;;11.32;7.40;;;230.80;2252.80;;;;;;5012759;28;20022;-61
2022/11/25 02:06:20;;;;;;;15.52;8.77;;;230.90;2252.80;;;;;;5012843;28;20108;-60
2022/11/25 02:08:49;;;;;;;18.85;11.95;;;230.90;2252.80;;;;;;5012242;28;20036;-60
2022/11/25 02:11:16;;;;;;;37.75;24.42;;;230.90;2252.80;;;;;;5012655;28;20057;-60
2022/11/25 02:13:44;;;;;;;13.80;10.45;;;230.90;2252.80;;;;;;5013095;28;20029;-60
2022/11/25 02:16:09;;;;;;;34.13;30.73;;;230.90;2252.80;;;;;;5012659;28;20058;-58
2022/11/25 02:18:35;;;;;;;13.00;8.30;;;230.90;2252.80;;;;;;5012536;28;20424;-61
2022/11/25 02:21:01;;;;;;;15.68;9.63;;;230.90;2252.80;;;;;;5012949;28;20113;-60
2022/11/25 02:23:41;;;;;;;9.45;6.25;;;230.90;2252.80;;;;;;5012553;28;20109;-58
2022/11/25 02:26:07;;;;;;;43.83;27.17;;;230.90;2252.80;;;;;;5012361;28;20030;-59
2022/11/25 02:28:34;;;;;;;11.88;8.07;;;230.90;2252.80;;;;;;5012691;28;20060;-58
2022/11/25 02:30:59;;;;;;;27.70;14.32;;;231.00;2252.80;;;;;;5012529;28;20026;-62
2022/11/25 02:33:26;;;;;;;9.75;7.20;;;230.90;2252.80;;;;;;5011950;28;20022;-60
2022/11/25 02:35:59;;;;;;;31.27;18.10;;;230.90;2252.80;;;;;;5012342;28;20026;-62
2022/11/25 02:39:02;;;;;;;33.22;16.52;;;230.90;2252.80;;;;;;5012062;28;20087;-61
2022/11/25 02:41:31;;;;;;;13.73;8.20;;;230.90;2252.80;;;;;;5011623;28;20042;-59
2022/11/25 02:43:57;;;;;;;15.80;8.05;;;230.90;2252.80;;;;;;5012085;28;20030;-61
2022/11/25 02:46:25;;;;;;;15.45;9.70;;;230.90;2252.80;;;;;;5012232;28;20571;-65
2022/11/25 02:48:52;;;;;;;12.15;8.35;;;230.90;2252.80;;;;;;5011966;28;20034;-60
2022/11/25 02:51:20;;;;;;;12.50;7.57;;;231.00;2252.80;;;;;;5012019;28;20038;-61
2022/11/25 02:53:47;;;;;;;16.02;9.43;;;230.90;2252.80;;;;;;5012087;28;20033;-60
2022/11/25 02:56:13;;;;;;;11.23;6.55;;;231.00;2252.80;;;;;;5012266;28;20491;-59
2022/11/25 02:58:39;;;;;;;12.07;7.72;;;231.00;2252.80;;;;;;5012280;28;20037;-61
2022/11/25 03:01:06;;;;;;;10.48;6.28;;;231.00;2252.80;;;;;;5011733;28;20022;-60
2022/11/25 03:03:31;;;;;;;10.82;7.13;;;231.00;2252.80;;;;;;5011885;28;20026;-60
2022/11/25 03:05:57;;;;;;;10.23;7.18;;;231.00;2252.80;;;;;;5011568;28;20022;-60
2022/11/25 03:08:23;;;;;;;11.73;6.97;;;231.10;2252.80;;;;;;5011755;28;20026;-61
2022/11/25 03:10:48;;;;;;;9.52;6.30;;;231.10;2252.80;;;;;;5011733;28;20047;-59
2022/11/25 03:13:14;;;;;;;15.88;10.68;;;231.10;2252.80;;;;;;5011850;28;20487;-64
2022/11/25 03:15:40;;;;;;;10.75;6.25;;;231.10;2252.80;;;;;;5011332;28;20049;-60
2022/11/25 03:18:06;;;;;;;10.65;5.97;;;231.10;2252.80;;;;;;5011434;28;20499;-60
2022/11/25 03:20:34;;;;;;;8.20;5.72;;;231.00;2252.80;;;;;;5010650;28;20046;-59
2022/11/25 03:22:59;;;;;;;7.32;5.63;;;231.00;2252.80;;;;;;5011837;28;20026;-59
2022/11/25 03:25:26;;;;;;;8.27;5.70;;;231.10;2252.80;;;;;;5011443;28;20053;-60
2022/11/25 03:27:51;;;;;;;11.38;7.00;;;231.00;2252.80;;;;;;5011367;28;20033;-60
2022/11/25 03:30:20;;;;;;;9.32;6.53;;;231.00;2252.80;;;;;;5011247;28;20034;-60
2022/11/25 03:32:46;;;;;;;12.63;6.85;;;231.10;2252.80;;;;;;5011049;28;20498;-60
2022/11/25 03:35:13;;;;;;;10.48;7.30;;;231.10;2252.80;;;;;;5011304;28;20038;-59
2022/11/25 03:37:39;;;;;;;15.70;9.43;;;231.10;2252.80;;;;;;5011457;28;20377;-60
2022/11/25 03:40:06;;;;;;;9.27;6.28;;;231.10;2252.80;;;;;;5010937;28;20029;-60
2022/11/25 03:42:32;;;;;;;7.55;5.38;;;231.10;2252.80;;;;;;5011083;28;20157;-60
2022/11/25 03:44:58;;;;;;;8.60;5.30;;;231.10;2252.80;;;;;;5010901;28;20115;-60
2022/11/25 03:47:24;;;;;;;7.28;4.65;;;231.20;2252.80;;;;;;5010817;28;20056;-60
2022/11/25 03:49:50;;;;;;;7.38;5.30;;;231.20;2252.80;;;;;;5011041;28;20184;-60
2022/11/25 03:52:15;;;;;;;6.60;5.03;;;231.20;2252.80;;;;;;5010959;28;20029;-59
2022/11/25 03:54:41;;;;;;;9.55;5.35;;;231.10;2252.80;;;;;;5010841;28;20037;-61
2022/11/25 03:57:07;;;;;;;10.77;5.65;;;231.10;2252.80;;;;;;5010806;28;20030;-60
2022/11/25 03:59:33;;;;;;;8.93;6.32;;;231.00;2252.80;;;;;;5010995;28;20026;-62
2022/11/25 04:01:58;;;;;;;15.60;7.18;;;231.10;2252.80;;;;;;5010898;28;20022;-59
2022/11/25 04:04:24;;;;;;;12.80;9.10;;;231.10;2252.80;;;;;;5010571;28;20029;-60
2022/11/25 04:06:50;;;;;;;12.63;8.80;;;231.10;2252.80;;;;;;5010716;28;20022;-64
2022/11/25 04:09:16;;;;;;;9.38;6.20;;;231.10;2252.80;;;;;;5010963;28;20036;-60
2022/11/25 04:14:26;;;;;;;11.95;5.85;;;231.00;2252.80;;;;;;5010188;28;20052;-59
2022/11/25 04:16:52;;;;;;;9.18;6.10;;;231.00;2252.80;;;;;;5010325;28;20041;-60
2022/11/25 04:19:17;;;;;;;7.95;5.63;;;231.00;2252.80;;;;;;5010394;28;20481;-63
2022/11/25 04:21:43;;;;;;;11.05;5.78;;;231.00;2252.80;;;;;;5010692;28;20237;-60
2022/11/25 04:24:09;;;;;;;9.20;6.03;;;230.90;2252.80;;;;;;5010740;28;20065;-60
2022/11/25 04:26:35;;;;;;;8.85;5.82;;;230.90;2252.80;;;;;;5010401;28;20468;-60
2022/11/25 04:29:00;;;;;;;9.18;6.30;;;230.90;2252.80;;;;;;5010494;28;20473;-60
2022/11/25 04:31:26;;;;;;;10.50;8.18;;;230.90;2252.80;;;;;;5009903;28;20173;-60
2022/11/25 04:33:52;;;;;;;9.63;5.88;;;230.90;2252.80;;;;;;5010423;28;20030;-59
2022/11/25 04:36:17;;;;;;;9.93;5.82;;;231.00;2252.80;;;;;;5010138;28;20034;-61
2022/11/25 04:38:43;;;;;;;8.63;5.63;;;231.00;2252.80;;;;;;5010268;28;20058;-60
2022/11/25 04:41:09;;;;;;;11.00;6.63;;;230.90;2252.80;;;;;;5010491;28;20061;-60
2022/11/25 04:43:35;;;;;;;7.60;6.25;;;230.90;2252.80;;;;;;5009918;28;20388;-60
2022/11/25 04:46:01;;;;;;;8.82;5.47;;;230.90;2252.80;;;;;;5010252;28;20061;-60
2022/11/25 04:48:27;;;;;;;8.50;5.07;;;230.90;2252.80;;;;;;5010147;28;20044;-61
2022/11/25 04:50:54;;;;;;;10.45;6.00;;;230.90;2252.80;;;;;;5009943;28;20079;-60
2022/11/25 04:53:19;;;;;;;8.25;5.38;;;230.80;2252.80;;;;;;5010385;28;20030;-61
2022/11/25 04:55:45;;;;;;;7.43;5.40;;;230.90;2252.80;;;;;;5009908;28;20034;-60
2022/11/25 04:58:11;;;;;;;9.10;5.88;;;230.90;2252.80;;;;;;5010330;28;20125;-60
2022/11/25 05:00:37;;;;;;;9.50;5.97;;;230.80;2252.80;;;;;;5010004;28;20088;-60
2022/11/25 05:03:03;;;;;;;10.18;8.80;;;230.80;2252.80;;;;;;5010040;28;20022;-62
2022/11/25 05:05:29;;;;;;;7.00;5.22;;;230.70;2252.80;;;;;;5010089;28;20022;-59
2022/11/25 05:07:55;;;;;;;11.63;6.20;;;230.80;2252.80;;;;;;5009958;28;20080;-60
2022/11/25 05:10:21;;;;;;;7.85;5.18;;;230.70;2252.80;;;;;;5010127;28;20117;-59
2022/11/25 05:12:47;;;;;;;7.65;6.68;;;230.60;2252.80;;;;;;5009894;28;20110;-61
2022/11/25 05:15:12;;;;;;;9.68;5.43;;;230.60;2252.80;;;;;;5009756;28;20038;-60
2022/11/25 05:17:39;;;;;;;10.50;5.88;;;230.40;2252.80;;;;;;5010053;28;20056;-60
2022/11/25 05:20:06;;;;;;;8.98;5.60;;;230.40;2252.80;;;;;;5009760;28;20487;-60
2022/11/25 05:22:32;;;;;;;7.07;4.82;;;230.50;2252.80;;;;;;5010105;28;20061;-61
2022/11/25 05:24:58;;;;;;;9.13;6.20;;;230.40;2252.80;;;;;;5009567;28;20487;-60
2022/11/25 05:27:25;;;;;;;7.55;5.75;;;230.50;2252.80;;;;;;5009727;28;20030;-60
2022/11/25 05:29:51;;;;;;;9.35;6.00;;;230.50;2252.80;;;;;;5009964;28;20033;-60
2022/11/25 05:32:16;;;;;;;9.38;5.25;;;230.50;2252.80;;;;;;5009950;28;20026;-59
2022/11/25 05:34:43;;;;;;;9.68;5.80;;;230.60;2252.80;;;;;;5009822;28;20388;-60
2022/11/25 05:37:11;;;;;;;9.45;5.78;;;230.60;2252.80;;;;;;5010167;28;20029;-60
2022/11/25 05:39:37;;;;;;;15.70;5.95;;;230.60;2252.80;;;;;;5009720;28;20527;-60
2022/11/25 05:42:03;;;;;;;10.43;4.85;;;230.70;2252.80;;;;;;5009719;28;20025;-59
2022/11/25 05:44:29;;;;;;;9.60;5.85;;;230.70;2252.80;;;;;;5012049;28;20104;-59
2022/11/25 05:46:54;;;;;;;10.85;5.60;;;230.70;2252.80;;;;;;5012986;28;20032;-60
2022/11/25 05:49:20;;;;;;;9.85;5.72;;;230.70;2252.80;;;;;;5013265;28;20073;-59
2022/11/25 05:51:47;;;;;;;11.80;5.32;;;230.70;2252.80;;;;;;5013077;28;20036;-60
2022/11/25 05:54:13;;;;;;;9.20;5.70;;;230.70;2252.80;;;;;;5013215;28;20070;-59
2022/11/25 05:56:39;;;;;;;12.98;8.00;;;230.70;2252.80;;;;;;5013176;28;20029;-59
2022/11/25 05:59:05;;;;;;;10.98;6.03;;;230.80;2252.80;;;;;;5013074;28;20026;-58
2022/11/25 06:01:32;;;;;;;9.55;6.70;;;230.80;2252.80;;;;;;5013200;28;20473;-59
2022/11/25 06:04:02;;;;;;;9.38;5.55;;;230.80;2252.80;;;;;;5012878;28;20464;-60
2022/11/25 06:06:28;;;;;;;7.65;6.50;;;230.80;2252.80;;;;;;5012832;28;20553;-60
2022/11/25 06:08:54;;;;;;;8.02;6.15;;;230.80;2252.80;;;;;;5012719;28;20449;-60
2022/11/25 06:11:20;;;;;;;11.25;6.90;;;230.90;2252.80;;;;;;5012850;28;20026;-63
2022/11/25 06:13:46;;;;;;;10.23;8.70;;;230.80;2252.80;;;;;;5012760;28;20029;-60
2022/11/25 06:16:17;;;;;;;10.95;8.98;;;230.80;2252.80;;;;;;5012255;28;20590;-60
2022/11/25 06:18:44;;;;;;;13.27;11.07;;;230.80;2252.80;;;;;;5012917;28;20026;-63
2022/11/25 06:21:10;;;;;;;12.63;11.18;;;230.90;2252.80;;;;;;5012786;28;20080;-59
2022/11/25 06:23:37;;;;;;;9.85;7.97;;;230.90;2252.80;;;;;;5012734;28;20026;-63
2022/11/25 06:26:03;;;;;;;9.48;6.15;;;230.90;2252.80;;;;;;5012604;28;20376;-64
2022/11/25 06:28:29;;;;;;;8.73;6.38;;;231.00;2252.80;;;;;;5012681;28;20018;-59
2022/11/25 06:30:55;;;;;;;11.02;7.43;;;231.00;2252.80;;;;;;5012202;28;20032;-60
2022/11/25 06:33:20;;;;;;;45.13;25.02;;;231.00;2252.80;;;;;;5012403;28;20022;-60
2022/11/25 06:35:46;;;;;;;29.15;19.08;;;231.10;2252.80;;;;;;5012270;28;20033;-60
2022/11/25 06:38:12;;;;;;;25.65;15.18;;;231.10;2252.80;;;;;;5012596;28;20037;-59
2022/11/25 06:40:37;;;;;;;13.73;8.68;;;231.20;2252.80;;;;;;5011962;28;20468;-60
2022/11/25 06:43:04;;;;;;;70.65;57.40;;;231.20;2252.80;;;;;;5012403;28;20018;-61
2022/11/25 06:45:30;;;;;;;51.08;44.22;;;231.30;2252.80;;;;;;5012110;28;20026;-59
2022/11/25 06:47:56;;;;;;;17.88;14.80;;;231.30;2252.80;;;;;;5011917;28;20029;-60
2022/11/25 06:50:22;;;;;;;10.52;9.02;;;256.00;2252.80;;;;;;5012166;28;20030;-60
2022/11/25 06:52:47;;;;;;;10.85;7.70;;;256.00;2252.80;;;;;;5011757;28;20034;-63
2022/11/25 06:55:13;;;;;;;8.45;6.15;;;256.20;2252.80;;;;;;5011764;28;20392;-59
2022/11/25 06:57:39;;;;;;;11.48;5.72;;;256.20;2252.80;;;;;;5012031;28;20025;-60
2022/11/25 07:00:05;;;;;;;8.52;6.13;;;256.20;2252.80;;;;;;5011750;28;20108;-64
2022/11/25 07:02:31;;;;;;;11.98;8.48;;;256.40;2252.80;;;;;;5011908;28;20038;-59
2022/11/25 07:04:57;;;;;;;11.40;7.07;;;256.50;2252.80;;;;;;5011655;28;20053;-58
2022/11/25 07:07:23;;;;;;;10.07;8.50;;;256.50;2252.80;;;;;;5011540;28;20480;-58
2022/11/25 07:09:48;;;;;;;9.60;7.53;;;256.50;2252.80;;;;;;5011907;28;20500;-60
2022/11/25 07:12:14;;;;;;;12.20;8.60;;;256.50;2252.80;;;;;;5011321;28;20026;-60
2022/11/25 07:14:40;;;;;;;12.57;7.72;;;256.60;2252.80;;;;;;5011859;28;20038;-60
2022/11/25 07:17:05;;;;;;;14.75;9.30;;;256.60;2252.80;;;;;;5011076;28;20416;-59
2022/11/25 07:19:34;;;;;;;26.88;18.33;;;256.60;2252.80;;;;;;5011513;28;20044;-58
2022/11/25 07:22:00;;;;;;;29.85;18.63;;;256.50;2252.80;;;;;;5011523;28;20042;-60
2022/11/25 07:24:26;;;;;;;37.40;22.23;;;256.70;2252.80;;;;;;5011134;28;20100;-60
2022/11/25 07:26:51;;;;;;;148.43;82.18;;;256.70;2252.80;;;;;;5011331;28;20029;-59
2022/11/25 07:29:18;;;;;;;31.83;20.63;;;256.80;2252.80;;;;;;5011217;28;20372;-60
2022/11/25 07:31:44;;;;;;;144.90;95.03;;;256.90;2252.80;;;;;;5011435;28;20108;-59
2022/11/25 07:34:12;;;;;;;37.72;26.35;;;256.90;2252.80;;;;;;5011223;28;20030;-58
2022/11/25 07:36:37;;;;;;;13.68;10.43;;;256.90;2252.80;;;;;;5011094;28;20040;-59
2022/11/25 07:39:26;;;;;;;12.35;9.45;;;281.70;2278.40;;;;;;5011313;28;20033;-59
2022/11/25 07:41:53;;;;;;;15.75;8.02;;;281.90;2278.40;;;;;;5010378;28;20048;-59
2022/11/25 07:44:20;;;;;;;13.95;8.90;;;282.10;2278.40;;;;;;5011170;28;20030;-59
2022/11/25 07:46:48;;;;;;;14.30;8.98;;;282.00;2278.40;;;;;;5010850;28;20026;-59
2022/11/25 07:49:17;;;;;;;13.93;7.57;;;282.10;2278.40;;;;;;5010916;28;20430;-59
2022/11/25 07:51:46;;;;;;;12.15;9.27;;;282.10;2278.40;;;;;;5011304;28;20026;-59
2022/11/25 07:54:12;;;;;;;11.90;8.18;;;282.20;2278.40;;;;;;5011107;28;20076;-59
2022/11/25 07:56:40;;;;;;;13.35;8.95;;;282.20;2278.40;;;;;;5010961;28;20026;-59
2022/11/25 07:59:10;;;;;;;13.00;10.57;;;282.30;2278.40;;;;;;5010598;28;20026;-59
2022/11/25 08:01:36;;;;;;;9.88;8.13;;;307.80;2304.00;;;;;;5010741;28;20033;-59
2022/11/25 08:04:01;;;;;;;10.77;7.55;;;307.90;2304.00;;;;;;5010761;28;20049;-58
2022/11/25 08:06:28;;;;;;;11.30;7.53;;;307.60;2304.00;;;;;;5010497;28;20103;-58
2022/11/25 08:08:56;;;;;;;12.02;8.57;;;307.60;2304.00;;;;;;5010469;28;20372;-58
2022/11/25 08:11:27;;;;;;;12.68;7.78;;;307.60;2304.00;;;;;;5010948;28;20065;-58
2022/11/25 08:13:54;;;;;;;12.73;6.85;;;307.40;2304.00;;;;;;5010427;28;20033;-59
2022/11/25 08:16:22;;;;;;;10.88;5.68;;;307.30;2304.00;;;;;;5010517;28;20069;-58
2022/11/25 08:18:48;;;;;;;9.57;5.97;;;307.70;2304.00;;;;;;5010484;28;20026;-59
2022/11/25 08:21:15;;;;;;;7.65;5.90;;;308.00;2304.00;;;;;;5010460;28;20037;-58
2022/11/25 08:23:47;;;;;;;11.73;7.45;;;307.90;2304.00;;;;;;5010490;28;20469;-58
2022/11/25 08:26:18;;;;;;;13.30;10.93;;;308.00;2304.00;;;;;;5010693;28;20384;-58
2022/11/25 08:28:45;;;;;;;27.27;21.48;;;307.90;2304.00;;;;;;5010177;28;20517;-58
2022/11/25 08:31:16;;;;;;;10.02;6.80;;;308.10;2304.00;;;;;;5010302;28;20041;-58
2022/11/25 08:33:42;;;;;;;11.32;5.90;;;307.90;2304.00;;;;;;5010391;28;20076;-58
2022/11/25 08:36:09;;;;;;;10.45;6.85;;;307.80;2304.00;;;;;;5010498;28;20030;-58
2022/11/25 08:38:35;;;;;;;10.23;5.43;;;307.90;2304.00;;;;;;5010085;28;20460;-60
2022/11/25 08:41:02;;;;;;;8.48;5.18;;;307.80;2304.00;;;;;;5010333;28;20033;-59
2022/11/25 08:43:28;;;;;;;10.27;5.57;;;307.80;2304.00;;;;;;5010120;28;20018;-59
2022/11/25 08:45:54;;;;;;;8.73;5.43;;;307.80;2304.00;;;;;;5009907;28;20026;-59
2022/11/25 08:48:20;;;;;;;8.95;5.15;;;308.00;2304.00;;;;;;5010361;28;20025;-59
2022/11/25 08:50:51;;;;;;;8.23;5.75;;;332.80;2329.60;;;;;;5010238;28;20151;-59
2022/11/25 08:53:18;;;;;;;6.80;4.28;;;332.90;2329.60;;;;;;5010050;28;20033;-59
2022/11/25 08:55:43;;;;;;;11.38;5.00;;;333.10;2329.60;;;;;;5010146;28;20432;-59
2022/11/25 08:58:11;;;;;;;28.65;25.48;;;333.20;2329.60;;;;;;5010157;28;20026;-59
2022/11/25 09:00:38;;;;;;;9.38;5.72;;;333.30;2329.60;;;;;;5009848;28;20447;-59
2022/11/25 09:03:04;;;;;;;8.20;5.75;;;333.40;2329.60;;;;;;5010087;28;20483;-59
2022/11/25 09:05:34;;;;;;;12.00;7.43;;;333.70;2329.60;;;;;;5010155;28;20026;-59
2022/11/25 09:08:02;;;;;;;204.10;181.80;;;359.30;2329.60;;;;;;5010293;28;20018;-59
2022/11/25 09:10:28;;;;;;;29.83;25.58;;;358.90;2329.60;;;;;;5010039;28;20018;-59
2022/11/25 09:12:54;;;;;;;38.42;34.30;;;358.80;2329.60;;;;;;5010014;28;20080;-60
2022/11/25 09:15:20;;;;;;;150.80;131.30;;;410.20;2201.60;;;;;;5009986;28;20038;-60
2022/11/25 09:17:45;;;;;;;23.42;21.10;;;460.80;1996.80;;;;;;5009888;28;20064;-60
2022/11/25 09:20:11;;;;;;;5.95;4.00;;;436.10;1996.80;;;;;;5013549;28;20034;-60
2022/11/25 09:22:37;;;;;;;27.45;24.58;;;435.90;1996.80;;;;;;5013735;28;20479;-59
2022/11/25 09:25:03;;;;;;;32.22;28.88;;;435.40;2022.40;;;;;;5013928;28;20049;-60
2022/11/25 09:27:30;;;;;;;27.55;23.55;;;409.90;2073.60;;;;;;5013895;28;20048;-59
2022/11/25 09:29:55;;;;;;;7.85;5.95;;;410.10;2099.20;;;;;;5013587;28;20026;-60
2022/11/25 09:32:21;;;;;;;6.53;3.78;;;384.60;2124.80;;;;;;5013586;28;20079;-59
2022/11/25 09:34:47;;;;;;;11.32;7.43;;;435.20;2048.00;;;;;;5013391;28;20034;-60
2022/11/25 09:37:12;;;;;;;10.13;6.90;;;461.20;1920.00;;;;;;5013700;28;20034;-62
2022/11/25 09:39:38;;;;;;;16.02;12.70;;;460.90;1971.20;;;;;;5013228;28;20029;-59
2022/11/25 09:48:46;;;;;;;17.48;10.90;;;410.30;2022.40;;;;;;4877204;29;20048;-60
2022/11/25 09:51:21;;;;;;;24.73;13.15;;;384.90;2073.60;;;;;;4877137;29;20041;-59
2022/11/25 09:53:53;;;;;;;11.05;7.22;;;384.60;2124.80;;;;;;4876462;29;20024;-60
2022/11/25 09:56:31;;;;;;;7.10;4.72;;;384.30;2150.40;;;;;;4876863;29;20433;-60
2022/11/25 09:59:05;;;;;;;31.48;16.65;;;384.30;2176.00;;;;;;4876764;29;20072;-60
2022/11/25 10:01:54;;;;;;;7.60;4.35;;;384.20;2176.00;;;;;;4876897;29;20120;-59
2022/11/25 10:04:36;;;;;;;4.85;2.97;;;384.40;2099.20;;;;;;4877060;29;20025;-58
2022/11/25 10:07:04;;;;;;;6.70;4.10;;;384.00;2124.80;;;;;;4874134;29;20041;-60
2022/11/25 10:09:33;;;;;;;7.13;3.67;;;359.30;2124.80;;;;;;4875033;29;20108;-60
2022/11/25 10:12:30;;;;;;;11.05;6.15;;;359.00;2124.80;;;;;;4874900;29;20068;-60
2022/11/25 10:15:01;;;;;;;21.00;8.63;;;358.70;2150.40;;;;;;4873558;29;20053;-60
2022/11/25 10:17:50;;;;;;;6.72;4.40;;;358.40;2227.20;;;;;;4874345;29;20080;-59
2022/11/25 10:20:21;;;;;;;11.05;6.97;;;333.60;2252.80;;;;;;4874360;29;20134;-60
2022/11/25 10:22:58;;;;;;;8.43;5.43;;;333.70;2278.40;;;;;;4907107;29;20175;-59
2022/11/25 10:25:28;;;;;;;12.77;8.50;;;333.70;2278.40;;;;;;4972431;28;20547;-60
2022/11/25 10:28:39;;;;;;;51.00;22.63;;;333.70;2278.40;;;;;;4989706;28;20080;-60
2022/11/25 10:31:09;;;;;;;12.38;9.52;;;358.50;2278.40;;;;;;4929732;29;20082;-59
2022/11/25 10:33:47;;;;;;;8.48;5.40;;;358.40;2278.40;;;;;;4930824;29;20036;-60
2022/11/25 10:36:32;;;;;;;13.50;8.85;;;333.70;2329.60;;;;;;4931058;29;20058;-60
2022/11/25 10:39:14;;;;;;;24.38;14.30;;;333.30;2329.60;;;;;;4930677;29;20028;-60
2022/11/25 10:41:58;;;;;;;18.55;14.77;;;333.30;2329.60;;;;;;4930779;29;20036;-60
2022/11/25 10:44:28;;;;;;;14.65;10.65;;;333.20;2329.60;;;;;;4930357;29;20036;-60
2022/11/25 10:47:11;;;;;;;12.90;10.63;;;333.00;2329.60;;;;;;4930594;29;20028;-60
2022/11/25 10:50:00;;;;;;;7.10;5.65;;;332.90;2329.60;;;;;;4930660;29;20119;-60
2022/11/25 10:52:29;;;;;;;11.65;6.75;;;332.80;2329.60;;;;;;4930668;29;20779;-59
2022/11/25 10:55:15;;;;;;;18.33;9.18;;;308.00;2304.00;;;;;;4929937;29;20482;-59
2022/11/25 10:57:41;;;;;;;12.57;6.10;;;308.00;2304.00;;;;;;4926796;29;20055;-59
2022/11/25 11:00:31;;;;;;;15.52;9.63;;;308.00;2304.00;;;;;;4929963;29;20035;-60
2022/11/25 11:02:59;;;;;;;11.55;7.30;;;308.00;2304.00;;;;;;4927949;29;20055;-59
2022/11/25 11:05:29;;;;;;;11.18;7.03;;;308.10;2304.00;;;;;;4926414;29;20115;-58
2022/11/25 11:08:17;;;;;;;11.88;6.05;;;308.10;2304.00;;;;;;4966979;28;20503;-60
2022/11/25 11:10:43;;;;;;;10.90;7.05;;;332.80;2329.60;;;;;;5009807;28;20065;-59
2022/11/25 11:13:27;;;;;;;6.38;4.47;;;332.80;2329.60;;;;;;5009972;28;20025;-59
2022/11/25 11:15:53;;;;;;;6.90;4.55;;;332.80;2329.60;;;;;;5010026;28;20052;-60
2022/11/25 11:18:27;;;;;;;8.45;5.90;;;332.80;2329.60;;;;;;5010214;28;20061;-59
2022/11/25 11:20:59;;;;;;;6.80;4.65;;;333.00;2329.60;;;;;;5010078;28;20038;-58
2022/11/25 11:23:26;;;;;;;10.25;6.32;;;333.20;2329.60;;;;;;5009309;28;20543;-60
2022/11/25 11:26:04;;;;;;;8.13;5.03;;;333.30;2329.60;;;;;;5010142;28;20112;-59
2022/11/25 11:28:35;;;;;;;11.73;8.15;;;333.20;2329.60;;;;;;5009831;28;20085;-60
2022/11/25 11:31:21;;;;;;;15.70;11.43;;;333.70;2329.60;;;;;;5009933;28;20435;-59
2022/11/25 11:33:47;;;;;;;28.00;24.15;;;333.70;2329.60;;;;;;5009595;28;20037;-59
2022/11/25 11:36:37;;;;;;;12.25;8.43;;;333.70;2329.60;;;;;;5009502;28;20025;-60
2022/11/25 11:39:06;;;;;;;9.10;5.53;;;358.50;2304.00;;;;;;5009720;28;20030;-59
2022/11/25 11:41:52;;;;;;;10.30;9.20;;;358.50;2278.40;;;;;;5008878;28;20033;-59
2022/11/25 11:44:33;;;;;;;9.23;6.05;;;358.70;2227.20;;;;;;5009959;28;20030;-59
2022/11/25 11:47:23;;;;;;;11.68;7.03;;;358.70;2201.60;;;;;;5009422;28;20064;-59
2022/11/25 11:50:03;;;;;;;8.38;5.43;;;358.70;2201.60;;;;;;5009281;28;20101;-59
2022/11/25 11:52:40;;;;;;;6.45;4.05;;;358.80;2201.60;;;;;;5009603;28;20033;-60
2022/11/25 11:55:27;;;;;;;4.13;2.80;;;359.00;2150.40;;;;;;5009151;28;20045;-59
2022/11/25 11:58:12;;;;;;;8.07;4.35;;;358.90;2176.00;;;;;;5009252;28;20026;-57
2022/11/25 12:00:49;;;;;;;5.93;3.67;;;358.80;2099.20;;;;;;5009155;28;20026;-57
2022/11/25 12:03:20;;;;;;;8.73;6.13;;;358.70;2124.80;;;;;;5008841;28;20033;-58
2022/11/25 12:05:52;;;;;;;10.90;6.47;;;358.70;2124.80;;;;;;5009435;28;20030;-58
2022/11/25 12:08:35;;;;;;;9.20;6.53;;;358.80;2124.80;;;;;;5009120;28;20033;-59
2022/11/25 12:11:08;;;;;;;8.18;4.93;;;358.80;2099.20;;;;;;5009235;28;20049;-59
2022/11/25 12:13:53;;;;;;;9.50;6.68;;;358.60;2124.80;;;;;;5008856;28;20484;-57
2022/11/25 12:16:28;;;;;;;7.40;4.03;;;358.50;2124.80;;;;;;5008596;28;20429;-57
2022/11/25 12:18:57;;;;;;;10.25;7.70;;;358.60;2099.20;;;;;;5008919;28;20037;-58
2022/11/25 12:21:53;;;;;;;14.77;9.30;;;358.70;2073.60;;;;;;5009000;28;20516;-57
2022/11/25 12:24:32;;;;;;;7.63;6.78;;;358.90;2073.60;;;;;;5008987;28;20057;-58
2022/11/25 12:27:01;;;;;;;14.02;8.38;;;359.00;2099.20;;;;;;5008844;28;20052;-58
2022/11/25 12:29:35;;;;;;;6.38;4.45;;;359.00;2073.60;;;;;;5008517;28;20033;-57
2022/11/25 12:35:50;;;;;;;10.73;7.03;;;359.00;2099.20;;;;;;5017377;28;20037;-57